createdAt,value
2023-05-03T00:00:54.644Z,102850.94
2023-05-03T00:03:24.456Z,102845.69
2023-05-03T00:05:51.374Z,102839.47
2023-05-03T00:08:17.736Z,102848.38
2023-05-03T00:10:44.336Z,102836.22
2023-05-03T00:13:10.853Z,102849.47
2023-05-03T00:15:37.399Z,102847.78
2023-05-03T00:18:04.158Z,102845.50
2023-05-03T00:20:30.743Z,102840.97
2023-05-03T00:22:57.481Z,102843.59
2023-05-03T00:25:23.892Z,102850.34
2023-05-03T00:27:50.573Z,102849.06
2023-05-03T00:30:18.904Z,102847.69
2023-05-03T00:32:45.621Z,102852.19
2023-05-03T00:35:12.087Z,102857.41
2023-05-03T00:37:38.726Z,102857.41
2023-05-03T00:40:06.738Z,102851.47
2023-05-03T00:42:36.548Z,102853.41
2023-05-03T00:45:04.978Z,102848.28
2023-05-03T00:47:32.673Z,102846.47
2023-05-03T00:50:00.536Z,102854.50
2023-05-03T00:52:27.610Z,102853.78
2023-05-03T00:54:54.164Z,102847.47
2023-05-03T00:57:22.720Z,102848.91
2023-05-03T00:59:49.761Z,102841.47
2023-05-03T01:02:16.811Z,102847.34
2023-05-03T01:04:43.691Z,102842.13
2023-05-03T01:07:29.184Z,102843.69
2023-05-03T01:10:22.790Z,102840.38
2023-05-03T01:13:01.633Z,102845.13
2023-05-03T01:15:45.874Z,102847.81
2023-05-03T01:18:17.567Z,102849.75
2023-05-03T01:20:48.036Z,102856.81
2023-05-03T01:23:30.215Z,102857.72
2023-05-03T01:25:57.283Z,102857.47
2023-05-03T01:28:24.090Z,102857.66
2023-05-03T01:30:52.505Z,102860.59
2023-05-03T01:33:37.025Z,102854.22
2023-05-03T01:36:20.431Z,102856.06
2023-05-03T01:38:49.135Z,102856.16
2023-05-03T01:41:19.410Z,102859.34
2023-05-03T01:43:46.446Z,102861.03
2023-05-03T01:46:14.954Z,102861.63
2023-05-03T01:48:44.315Z,102857.38
2023-05-03T01:51:10.805Z,102873.94
2023-05-03T01:53:37.659Z,102869.19
2023-05-03T01:56:04.407Z,102869.91
2023-05-03T01:58:32.764Z,102863.44
2023-05-03T02:00:59.317Z,102869.28
2023-05-03T02:03:26.102Z,102870.59
2023-05-03T02:05:52.622Z,102859.59
2023-05-03T02:08:19.250Z,102861.56
2023-05-03T02:10:45.738Z,102870.06
2023-05-03T02:13:12.354Z,102867.22
2023-05-03T02:15:38.919Z,102874.56
2023-05-03T02:18:05.524Z,102882.84
2023-05-03T02:20:36.574Z,102885.28
2023-05-03T02:23:04.004Z,102880.69
2023-05-03T02:25:30.918Z,102879.66
2023-05-03T02:27:57.356Z,102888.47
2023-05-03T02:30:24.237Z,102882.31
2023-05-03T02:32:50.692Z,102884.63
2023-05-03T02:35:19.024Z,102891.56
2023-05-03T02:37:45.491Z,102892.31
2023-05-03T02:40:12.724Z,102889.41
2023-05-03T02:42:41.001Z,102890.09
2023-05-03T02:45:08.893Z,102893.66
2023-05-03T02:47:35.566Z,102892.16
2023-05-03T02:50:02.428Z,102894.59
2023-05-03T02:52:32.100Z,102894.47
2023-05-03T02:54:58.675Z,102888.91
2023-05-03T02:57:25.542Z,102884.53
2023-05-03T02:59:52.206Z,102888.66
2023-05-03T03:02:18.660Z,102887.59
2023-05-03T03:04:45.433Z,102888.78
2023-05-03T03:07:12.198Z,102892.19
2023-05-03T03:09:38.691Z,102889.44
2023-05-03T03:12:05.553Z,102879.53
2023-05-03T03:14:33.471Z,102885.06
2023-05-03T03:17:01.708Z,102882.75
2023-05-03T03:19:28.431Z,102891.78
2023-05-03T03:21:55.012Z,102891.63
2023-05-03T03:24:22.207Z,102884.69
2023-05-03T03:26:50.030Z,102887.13
2023-05-03T03:29:16.726Z,102889.69
2023-05-03T03:31:44.808Z,102878.47
2023-05-03T03:34:13.109Z,102882.88
2023-05-03T03:36:39.704Z,102893.22
2023-05-03T03:39:06.574Z,102886.13
2023-05-03T03:41:35.689Z,102890.81
2023-05-03T03:44:02.771Z,102886.41
2023-05-03T03:46:29.417Z,102889.69
2023-05-03T03:48:58.223Z,102885.88
2023-05-03T03:51:27.522Z,102881.81
2023-05-03T03:53:54.360Z,102880.00
2023-05-03T03:56:25.263Z,102875.31
2023-05-03T03:58:53.398Z,102874.31
2023-05-03T04:01:20.157Z,102874.81
2023-05-03T04:03:47.479Z,102873.13
2023-05-03T04:06:14.415Z,102877.84
2023-05-03T04:08:41.042Z,102878.59
2023-05-03T04:11:12.502Z,102877.66
2023-05-03T04:13:44.460Z,102891.97
2023-05-03T04:16:10.992Z,102885.59
2023-05-03T04:18:37.689Z,102881.69
2023-05-03T04:21:06.271Z,102876.59
2023-05-03T04:23:32.736Z,102879.72
2023-05-03T04:26:00.032Z,102892.88
2023-05-03T04:28:28.364Z,102887.16
2023-05-03T04:30:58.724Z,102879.00
2023-05-03T04:33:28.774Z,102887.22
2023-05-03T04:35:58.361Z,102886.72
2023-05-03T04:38:25.816Z,102894.38
2023-05-03T04:40:52.323Z,102895.56
2023-05-03T04:43:18.940Z,102897.81
2023-05-03T04:45:47.291Z,102904.66
2023-05-03T04:48:18.836Z,102899.94
2023-05-03T04:50:46.167Z,102906.81
2023-05-03T04:53:15.634Z,102907.88
2023-05-03T04:55:44.983Z,102911.84
2023-05-03T04:58:11.494Z,102918.88
2023-05-03T05:00:38.824Z,102920.75
2023-05-03T05:03:12.023Z,102914.28
2023-05-03T05:05:39.007Z,102920.19
2023-05-03T05:08:07.149Z,102914.94
2023-05-03T05:10:42.472Z,102922.56
2023-05-03T05:13:11.452Z,102924.09
2023-05-03T05:15:38.129Z,102931.75
2023-05-03T05:18:04.877Z,102938.25
2023-05-03T05:20:31.972Z,102933.44
2023-05-03T05:22:59.133Z,102924.91
2023-05-03T05:25:26.073Z,102929.91
2023-05-03T05:27:52.997Z,102928.53
2023-05-03T05:30:19.523Z,102937.88
2023-05-03T05:32:46.629Z,102933.50
2023-05-03T05:35:13.167Z,102945.53
2023-05-03T05:37:39.886Z,102934.56
2023-05-03T05:40:07.914Z,102944.63
2023-05-03T05:42:42.567Z,102943.09
2023-05-03T05:45:09.639Z,102943.31
2023-05-03T05:47:37.883Z,102955.38
2023-05-03T05:50:15.048Z,102944.38
2023-05-03T05:52:46.305Z,102949.16
2023-05-03T05:55:15.707Z,102953.22
2023-05-03T05:57:44.040Z,102955.50
2023-05-03T06:00:14.769Z,102956.88
2023-05-03T06:02:44.424Z,102951.19
2023-05-03T06:05:15.237Z,102951.00
2023-05-03T06:07:41.908Z,102968.06
2023-05-03T06:10:08.676Z,102961.97
2023-05-03T06:12:37.383Z,102966.59
2023-05-03T06:15:07.771Z,102966.88
2023-05-03T06:17:36.876Z,102955.84
2023-05-03T06:20:04.713Z,102966.38
2023-05-03T06:22:31.676Z,102972.91
2023-05-03T06:24:58.541Z,102968.34
2023-05-03T06:27:25.789Z,102976.50
2023-05-03T06:29:53.612Z,102968.78
2023-05-03T06:32:21.788Z,102969.63
2023-05-03T06:34:49.688Z,102980.50
2023-05-03T06:37:17.451Z,102978.78
2023-05-03T06:39:44.545Z,102969.28
2023-05-03T06:42:11.295Z,102969.53
2023-05-03T06:44:39.941Z,102970.09
2023-05-03T06:47:07.019Z,102973.41
2023-05-03T06:49:33.734Z,102969.16
2023-05-03T06:52:00.612Z,102969.38
2023-05-03T06:54:27.134Z,102967.69
2023-05-03T06:56:53.790Z,102962.25
2023-05-03T06:59:20.303Z,102964.91
2023-05-03T07:01:47.178Z,102975.13
2023-05-03T07:04:13.891Z,102974.28
2023-05-03T07:06:55.555Z,102959.53
2023-05-03T07:09:32.048Z,102965.06
2023-05-03T07:12:09.678Z,102970.81
2023-05-03T07:14:36.222Z,102975.69
2023-05-03T07:17:02.691Z,102989.94
2023-05-03T07:19:29.965Z,102983.25
2023-05-03T07:21:56.594Z,102986.38
2023-05-03T07:24:24.813Z,102978.88
2023-05-03T07:26:52.436Z,102970.88
2023-05-03T07:29:19.137Z,102958.94
2023-05-03T07:31:45.916Z,102972.38
2023-05-03T07:34:12.394Z,102967.56
2023-05-03T07:36:39.385Z,102976.53
2023-05-03T07:39:07.352Z,102969.56
2023-05-03T07:41:33.948Z,102966.94
2023-05-03T07:44:00.522Z,102962.56
2023-05-03T07:46:27.311Z,102971.91
2023-05-03T07:48:53.894Z,102965.00
2023-05-03T07:51:21.255Z,102963.16
2023-05-03T07:53:47.766Z,102960.34
2023-05-03T07:56:14.214Z,102959.03
2023-05-03T07:58:41.178Z,102960.41
2023-05-03T08:01:09.823Z,102973.63
2023-05-03T08:03:36.653Z,102971.38
2023-05-03T08:06:03.518Z,102961.56
2023-05-03T08:08:32.147Z,102959.22
2023-05-03T08:10:58.704Z,102967.25
2023-05-03T08:13:25.458Z,102951.63
2023-05-03T08:15:52.514Z,102954.34
2023-05-03T08:18:20.012Z,102954.16
2023-05-03T08:20:49.198Z,102970.63
2023-05-03T08:23:18.955Z,102972.09
2023-05-03T08:25:45.476Z,102968.13
2023-05-03T08:28:11.974Z,102971.31
2023-05-03T08:30:38.561Z,102973.00
2023-05-03T08:33:05.250Z,102958.97
2023-05-03T08:35:32.096Z,102965.03
2023-05-03T08:37:58.638Z,102966.31
2023-05-03T08:40:27.212Z,102964.53
2023-05-03T08:42:56.122Z,102963.63
2023-05-03T08:45:22.972Z,102963.88
2023-05-03T08:47:54.422Z,102969.34
2023-05-03T08:50:21.380Z,102969.78
2023-05-03T08:52:47.856Z,102982.41
2023-05-03T08:55:14.482Z,102980.97
2023-05-03T08:57:41.229Z,102975.78
2023-05-03T09:00:11.340Z,102978.81
2023-05-03T09:02:40.038Z,102978.22
2023-05-03T09:05:34.469Z,102979.41
2023-05-03T09:08:06.460Z,102988.84
2023-05-03T09:10:36.562Z,102988.28
2023-05-03T09:13:03.253Z,102988.56
2023-05-03T09:15:30.657Z,102991.19
2023-05-03T09:18:10.043Z,102984.47
2023-05-03T09:20:38.918Z,102982.91
2023-05-03T09:23:07.841Z,102981.25
2023-05-03T09:25:48.973Z,102972.19
2023-05-03T09:28:17.298Z,102973.63
2023-05-03T09:30:48.430Z,102973.41
2023-05-03T09:33:22.063Z,102978.63
2023-05-03T09:36:04.812Z,102972.38
2023-05-03T09:38:34.278Z,102973.66
2023-05-03T09:41:07.220Z,102965.94
2023-05-03T09:43:35.668Z,102966.31
2023-05-03T09:46:13.243Z,102967.59
2023-05-03T09:48:41.133Z,102958.09
2023-05-03T09:51:08.858Z,102960.00
2023-05-03T09:53:37.214Z,102964.31
2023-05-03T09:56:06.137Z,102951.47
2023-05-03T09:58:35.021Z,102953.91
2023-05-03T10:01:01.894Z,102948.16
2023-05-03T10:03:35.062Z,102952.78
2023-05-03T10:06:04.582Z,102956.56
2023-05-03T10:08:35.322Z,102960.22
2023-05-03T10:11:08.771Z,102965.75
2023-05-03T10:13:36.243Z,102963.22
2023-05-03T10:16:06.967Z,102970.13
2023-05-03T10:18:37.906Z,102960.38
2023-05-03T10:21:09.910Z,102951.78
2023-05-03T10:23:36.359Z,102950.41
2023-05-03T10:26:05.779Z,102946.84
2023-05-03T10:28:37.136Z,102943.44
2023-05-03T10:31:04.260Z,102937.63
2023-05-03T10:33:34.739Z,102939.63
2023-05-03T10:36:10.491Z,102937.59
2023-05-03T10:38:38.473Z,102920.00
2023-05-03T10:41:06.963Z,102909.13
2023-05-03T10:43:33.372Z,102921.03
2023-05-03T10:46:02.176Z,102915.88
2023-05-03T10:48:30.440Z,102894.38
2023-05-03T10:50:58.176Z,102903.31
2023-05-03T10:53:38.268Z,102912.72
2023-05-03T10:56:11.311Z,102899.84
2023-05-03T10:58:42.333Z,102906.84
2023-05-03T11:01:15.171Z,102904.28
2023-05-03T11:04:05.388Z,102913.75
2023-05-03T11:06:36.573Z,102907.53
2023-05-03T11:09:07.918Z,102908.16
2023-05-03T11:11:36.882Z,102919.69
2023-05-03T11:14:03.942Z,102917.63
2023-05-03T11:16:31.204Z,102920.41
2023-05-03T11:18:58.971Z,102910.41
2023-05-03T11:21:26.228Z,102919.56
2023-05-03T11:23:52.654Z,102919.50
2023-05-03T11:26:22.270Z,102919.19
2023-05-03T11:28:48.722Z,102917.75
2023-05-03T11:31:15.318Z,102923.34
2023-05-03T11:33:42.228Z,102929.31
2023-05-03T11:36:09.506Z,102927.34
2023-05-03T11:38:37.982Z,102916.59
2023-05-03T11:41:16.243Z,102912.13
2023-05-03T11:43:48.439Z,102918.63
2023-05-03T11:46:21.836Z,102908.88
2023-05-03T11:48:48.538Z,102904.59
2023-05-03T11:51:15.174Z,102900.75
2023-05-03T11:53:44.217Z,102897.81
2023-05-03T11:56:15.221Z,102893.94
2023-05-03T11:58:57.182Z,102901.25
2023-05-03T12:01:28.720Z,102885.41
2023-05-03T12:03:59.257Z,102885.59
2023-05-03T12:06:27.777Z,102896.38
2023-05-03T12:08:54.986Z,102876.38
2023-05-03T12:11:25.316Z,102877.66
2023-05-03T12:14:00.182Z,102879.75
2023-05-03T12:16:27.553Z,102880.31
2023-05-03T12:18:55.669Z,102883.72
2023-05-03T12:23:56.194Z,102878.25
2023-05-03T12:26:25.569Z,102869.56
2023-05-03T12:28:55.212Z,102872.03
2023-05-03T12:31:23.292Z,102861.97
2023-05-03T12:34:12.638Z,102856.66
2023-05-03T12:36:38.264Z,102867.84
2023-05-03T12:39:09.325Z,102877.75
2023-05-03T12:44:09.933Z,102863.06
2023-05-03T12:46:38.912Z,102868.47
2023-05-03T12:49:08.291Z,102871.81
2023-05-03T12:51:35.957Z,102867.03
2023-05-03T12:54:10.015Z,102858.19
2023-05-03T12:56:40.137Z,102863.50
2023-05-03T12:59:39.532Z,102857.31
2023-05-03T13:04:56.010Z,102859.63
2023-05-03T13:07:13.973Z,102859.16
2023-05-03T13:12:27.918Z,102851.31
2023-05-03T13:14:55.348Z,102845.16
2023-05-03T13:17:22.968Z,102835.69
2023-05-03T13:19:51.145Z,102828.09
2023-05-03T13:22:18.238Z,102822.44
2023-05-03T13:24:46.776Z,102821.09
2023-05-03T13:27:13.722Z,102823.91
2023-05-03T13:29:40.514Z,102821.22
2023-05-03T13:32:08.173Z,102819.06
2023-05-03T13:34:35.720Z,102809.72
2023-05-03T13:37:02.923Z,102802.94
2023-05-03T13:39:29.637Z,102806.59
2023-05-03T13:41:56.093Z,102814.34
2023-05-03T13:44:26.272Z,102803.41
2023-05-03T13:46:53.464Z,102808.59
2023-05-03T13:49:20.676Z,102805.03
2023-05-03T13:51:47.522Z,102800.69
2023-05-03T13:54:13.988Z,102794.72
2023-05-03T13:56:42.847Z,102778.69
2023-05-03T13:59:12.364Z,102777.56
2023-05-03T14:01:39.529Z,102773.81
2023-05-03T14:04:06.342Z,102782.59
2023-05-03T14:06:33.771Z,102785.41
2023-05-03T14:09:01.578Z,102782.09
2023-05-03T14:11:30.039Z,102786.06
2023-05-03T14:13:57.809Z,102773.72
2023-05-03T14:18:56.076Z,102778.97
2023-05-03T14:21:22.900Z,102783.75
2023-05-03T14:23:54.152Z,102768.31
2023-05-03T14:26:22.198Z,102773.41
2023-05-03T14:28:48.734Z,102767.84
2023-05-03T14:31:16.495Z,102777.38
2023-05-03T14:33:43.035Z,102766.75
2023-05-03T14:36:09.697Z,102769.09
2023-05-03T14:38:37.243Z,102754.09
2023-05-03T14:41:03.844Z,102758.38
2023-05-03T14:43:31.000Z,102769.31
2023-05-03T14:45:57.471Z,102759.44
2023-05-03T14:48:24.041Z,102756.22
2023-05-03T14:50:51.391Z,102756.88
2023-05-03T14:53:18.199Z,102767.50
2023-05-03T14:55:45.954Z,102754.34
2023-05-03T14:58:15.707Z,102748.38
2023-05-03T15:00:42.844Z,102762.59
2023-05-03T15:03:11.838Z,102762.16
2023-05-03T15:05:46.462Z,102753.78
2023-05-03T15:08:15.151Z,102752.00
2023-05-03T15:10:42.657Z,102747.91
2023-05-03T15:13:10.168Z,102741.19
2023-05-03T15:15:38.233Z,102740.25
2023-05-03T15:18:05.795Z,102738.97
2023-05-03T15:20:32.566Z,102740.75
2023-05-03T15:22:59.067Z,102746.72
2023-05-03T15:25:25.700Z,102744.81
2023-05-03T15:27:52.544Z,102745.81
2023-05-03T15:30:19.173Z,102750.34
2023-05-03T15:32:45.823Z,102747.94
2023-05-03T15:35:12.887Z,102748.50
2023-05-03T15:37:39.459Z,102743.44
2023-05-03T15:40:09.234Z,102745.84
2023-05-03T15:42:36.511Z,102740.47
2023-05-03T15:45:03.898Z,102743.31
2023-05-03T15:47:30.620Z,102740.75
2023-05-03T15:50:00.410Z,102733.63
2023-05-03T15:52:27.043Z,102739.16
2023-05-03T15:54:54.793Z,102729.19
2023-05-03T15:57:22.551Z,102737.59
2023-05-03T15:59:49.403Z,102732.41
2023-05-03T16:02:16.181Z,102733.63
2023-05-03T16:04:42.724Z,102740.03
2023-05-03T16:07:09.192Z,102732.41
2023-05-03T16:09:35.985Z,102737.31
2023-05-03T16:12:02.633Z,102730.25
2023-05-03T16:14:29.183Z,102729.84
2023-05-03T16:16:55.652Z,102719.53
2023-05-03T16:19:22.306Z,102719.84
2023-05-03T16:21:48.896Z,102718.00
2023-05-03T16:24:15.391Z,102724.06
2023-05-03T16:26:41.895Z,102715.47
2023-05-03T16:29:08.511Z,102722.50
2023-05-03T16:31:34.999Z,102715.59
2023-05-03T16:34:02.582Z,102710.75
2023-05-03T16:36:29.130Z,102713.25
2023-05-03T16:38:55.591Z,102711.78
2023-05-03T16:41:22.119Z,102710.94
2023-05-03T16:43:48.582Z,102720.19
2023-05-03T16:46:15.076Z,102710.38
2023-05-03T16:48:42.146Z,102705.59
2023-05-03T16:51:08.783Z,102708.22
2023-05-03T16:53:35.231Z,102698.69
2023-05-03T16:56:01.724Z,102698.75
2023-05-03T16:58:28.184Z,102712.72
2023-05-03T17:00:54.948Z,102709.97
2023-05-03T17:03:21.668Z,102712.06
2023-05-03T17:05:48.259Z,102709.94
2023-05-03T17:08:15.367Z,102716.56
2023-05-03T17:10:42.429Z,102718.94
2023-05-03T17:13:09.325Z,102718.25
2023-05-03T17:15:36.743Z,102713.00
2023-05-03T17:18:04.753Z,102717.03
2023-05-03T17:20:31.609Z,102708.63
2023-05-03T17:22:58.428Z,102702.03
2023-05-03T17:25:24.920Z,102701.66
2023-05-03T17:27:52.633Z,102701.06
2023-05-03T17:30:21.807Z,102700.47
2023-05-03T17:32:48.682Z,102707.19
2023-05-03T17:35:15.315Z,102704.19
2023-05-03T17:37:41.759Z,102703.31
2023-05-03T17:40:08.834Z,102706.81
2023-05-03T17:42:35.453Z,102697.91
2023-05-03T17:45:03.116Z,102703.72
2023-05-03T17:47:29.639Z,102692.34
2023-05-03T17:49:56.494Z,102709.44
2023-05-03T17:52:23.058Z,102700.97
2023-05-03T17:54:52.331Z,102716.75
2023-05-03T17:57:20.496Z,102714.25
2023-05-03T17:59:48.562Z,102707.53
2023-05-03T18:02:15.063Z,102712.09
2023-05-03T18:04:41.524Z,102714.97
2023-05-03T18:07:08.147Z,102719.28
2023-05-03T18:09:34.724Z,102714.44
2023-05-03T18:12:03.467Z,102726.69
2023-05-03T18:14:30.236Z,102735.22
2023-05-03T18:16:56.738Z,102730.44
2023-05-03T18:19:23.888Z,102734.66
2023-05-03T18:21:50.448Z,102740.66
2023-05-03T18:24:17.062Z,102739.06
2023-05-03T18:26:43.781Z,102734.59
2023-05-03T18:29:10.193Z,102735.03
2023-05-03T18:31:36.805Z,102742.78
2023-05-03T18:34:03.637Z,102737.66
2023-05-03T18:36:31.881Z,102742.84
2023-05-03T18:38:58.334Z,102741.59
2023-05-03T18:41:24.924Z,102750.75
2023-05-03T18:43:51.972Z,102751.28
2023-05-03T18:46:19.559Z,102753.28
2023-05-03T18:48:47.399Z,102758.91
2023-05-03T18:51:14.252Z,102759.13
2023-05-03T18:53:40.719Z,102756.38
2023-05-03T18:56:07.165Z,102755.44
2023-05-03T18:58:33.696Z,102754.03
2023-05-03T19:01:00.684Z,102757.84
2023-05-03T19:03:29.456Z,102761.97
2023-05-03T19:05:59.998Z,102772.34
2023-05-03T19:08:26.493Z,102769.75
2023-05-03T19:10:53.100Z,102775.66
2023-05-03T19:13:19.584Z,102772.91
2023-05-03T19:15:46.960Z,102774.69
2023-05-03T19:18:16.065Z,102770.91
2023-05-03T19:20:43.311Z,102775.41
2023-05-03T19:23:09.872Z,102781.63
2023-05-03T19:25:36.490Z,102784.97
2023-05-03T19:28:05.047Z,102790.25
2023-05-03T19:30:31.594Z,102781.19
2023-05-03T19:32:58.282Z,102790.69
2023-05-03T19:35:24.884Z,102793.81
2023-05-03T19:37:51.322Z,102793.56
2023-05-03T19:40:18.103Z,102790.78
2023-05-03T19:42:44.514Z,102793.09
2023-05-03T19:45:11.725Z,102797.63
2023-05-03T19:47:38.229Z,102791.53
2023-05-03T19:50:05.531Z,102793.69
2023-05-03T19:52:32.280Z,102794.16
2023-05-03T19:54:58.745Z,102793.72
2023-05-03T19:57:25.508Z,102787.81
2023-05-03T19:59:52.130Z,102788.72
2023-05-03T20:02:18.662Z,102787.03
2023-05-03T20:04:45.112Z,102783.75
2023-05-03T20:07:11.564Z,102787.13
2023-05-03T20:09:38.173Z,102783.31
2023-05-03T20:12:05.780Z,102793.66
2023-05-03T20:14:32.413Z,102797.44
2023-05-03T20:16:58.868Z,102792.72
2023-05-03T20:19:25.945Z,102792.91
2023-05-03T20:21:52.623Z,102788.38
2023-05-03T20:24:20.822Z,102790.63
2023-05-03T20:26:47.232Z,102788.72
2023-05-03T20:29:14.382Z,102802.56
2023-05-03T20:31:40.877Z,102801.22
2023-05-03T20:34:07.840Z,102801.78
2023-05-03T20:36:34.282Z,102799.84
2023-05-03T20:39:00.902Z,102808.03
2023-05-03T20:41:27.492Z,102799.16
2023-05-03T20:43:54.916Z,102801.19
2023-05-03T20:46:21.592Z,102802.44
2023-05-03T20:48:48.212Z,102802.13
2023-05-03T20:51:14.804Z,102794.88
2023-05-03T20:53:41.412Z,102798.72
2023-05-03T20:56:08.112Z,102801.25
2023-05-03T20:58:34.729Z,102800.88
2023-05-03T21:01:04.151Z,102799.28
2023-05-03T21:03:31.788Z,102797.28
2023-05-03T21:05:58.524Z,102799.13
2023-05-03T21:08:25.291Z,102797.28
2023-05-03T21:10:52.723Z,102796.97
2023-05-03T21:13:19.412Z,102795.44
2023-05-03T21:15:45.860Z,102800.25
2023-05-03T21:18:12.403Z,102792.88
2023-05-03T21:20:39.096Z,102801.28
2023-05-03T21:23:05.802Z,102799.03
2023-05-03T21:25:32.284Z,102797.06
2023-05-03T21:27:58.787Z,102793.75
2023-05-03T21:30:25.303Z,102804.38
2023-05-03T21:32:51.842Z,102799.34
2023-05-03T21:35:19.495Z,102796.69
2023-05-03T21:37:47.301Z,102801.38
2023-05-03T21:40:15.192Z,102800.25
2023-05-03T21:42:42.773Z,102791.88
2023-05-03T21:45:10.518Z,102793.88
2023-05-03T21:47:37.046Z,102792.38
2023-05-03T21:50:05.933Z,102795.28
2023-05-03T21:52:33.187Z,102791.00
2023-05-03T21:54:59.716Z,102795.34
2023-05-03T21:57:26.378Z,102786.84
2023-05-03T21:59:54.061Z,102787.00
2023-05-03T22:02:21.708Z,102784.31
2023-05-03T22:04:48.658Z,102787.78
2023-05-03T22:07:16.325Z,102782.59
2023-05-03T22:09:47.488Z,102787.25
2023-05-03T22:14:45.267Z,102776.75
2023-05-03T22:17:11.802Z,102768.75
2023-05-03T22:19:38.237Z,102781.13
2023-05-03T22:22:04.800Z,102775.59
2023-05-03T22:24:31.258Z,102771.38
2023-05-03T22:26:59.122Z,102776.97
2023-05-03T22:29:26.396Z,102776.97
2023-05-03T22:31:53.556Z,102769.56
2023-05-03T22:34:20.319Z,102768.81
2023-05-03T22:36:46.764Z,102769.03
2023-05-03T22:39:13.242Z,102760.00
2023-05-03T22:41:39.719Z,102762.78
2023-05-03T22:44:06.659Z,102763.34
2023-05-03T22:46:33.163Z,102763.91
2023-05-03T22:48:59.788Z,102764.22
2023-05-03T22:51:26.263Z,102754.56
2023-05-03T22:53:53.125Z,102758.53
2023-05-03T22:56:19.603Z,102753.56
2023-05-03T22:58:47.301Z,102750.66
2023-05-03T23:01:14.802Z,102755.19
2023-05-03T23:03:41.596Z,102752.47
2023-05-03T23:06:08.260Z,102747.88
2023-05-03T23:08:34.956Z,102753.28
2023-05-03T23:11:01.853Z,102748.97
2023-05-03T23:13:28.497Z,102746.63
2023-05-03T23:15:55.094Z,102746.63
2023-05-03T23:18:21.920Z,102740.69
2023-05-03T23:20:49.424Z,102747.50
2023-05-03T23:23:16.223Z,102743.69
2023-05-03T23:25:42.796Z,102738.59
2023-05-03T23:28:09.557Z,102747.25
2023-05-03T23:30:36.622Z,102738.53
2023-05-03T23:33:03.896Z,102735.66
2023-05-03T23:35:31.017Z,102740.06
2023-05-03T23:37:57.777Z,102739.06
2023-05-03T23:40:24.277Z,102741.91
2023-05-03T23:42:50.816Z,102730.66
2023-05-03T23:45:17.274Z,102741.38
2023-05-03T23:47:44.288Z,102729.34
2023-05-03T23:50:11.014Z,102728.88
2023-05-03T23:52:37.690Z,102729.63
2023-05-03T23:55:05.308Z,102730.56
2023-05-03T23:57:32.053Z,102737.50
2023-05-03T23:59:58.466Z,102735.09
